This is the latest recevied weather packets stored in our database for station/object KF7OVD-WX. If no packets are shown the sender has not sent any weather packets the latest 10 day(s).
| Time | Temp. | Humidity | Pressure | Rain* | Wind** | Luminosity | Snow |
|---|---|---|---|---|---|---|---|
| 1778303749 | 11.67° C | 36% | 1020.2 hPa | 0 mm | - | - | - |
| 1778303143 | 11.67° C | 36% | 1020 hPa | 0 mm | - | - | - |
| 1778302517 | 12.22° C | 35% | 1020 hPa | 0 mm | - | - | - |
| 1778300417 | 13.89° C | 32% | 1019.6 hPa | 0 mm | - | - | - |
| 1778299231 | 15.56° C | 31% | 1019.4 hPa | 0 mm | - | - | - |
| 1778298949 | 15.56° C | 30% | 1019.4 hPa | 0 mm | - | - | - |
| 1778298020 | 16.67° C | 27% | 1019.2 hPa | 0 mm | - | - | - |
| 1778297737 | 17.22° C | 27% | 1019.2 hPa | 0 mm | - | - | - |
| 1778297433 | 17.78° C | 26% | 1019.2 hPa | 0 mm | - | - | - |
| 1778296848 | 18.89° C | 25% | 1019 hPa | 0 mm | - | - | - |
| 1778294727 | 23.33° C | 19% | 1018.5 hPa | 0 mm | - | - | - |
| 1778292330 | 25.56° C | 16% | 1018.1 hPa | 0 mm | - | - | - |
| 1778289626 | 29.44° C | 15% | 1018.1 hPa | 0 mm | - | - | - |
| 1778289323 | 30° C | 14% | 1018.1 hPa | 0 mm | - | - | - |
| 1778288718 | 30.56° C | 14% | 1018.1 hPa | 0 mm | - | - | - |
| 1778288415 | 30.56° C | 14% | 1018.1 hPa | 0 mm | - | - | - |
| 1778287526 | 31.67° C | 14% | 1018.3 hPa | 0 mm | - | - | - |
| 1778286016 | 31.67° C | 13% | 1018.4 hPa | 0 mm | - | - | - |
| 1778284225 | 31.67° C | 12% | 1018.5 hPa | 0 mm | - | - | - |
| 1778282430 | 32.78° C | 13% | 1018.6 hPa | 0 mm | - | - | - |
| 1778280939 | 32.78° C | 13% | 1018.6 hPa | 0 mm | - | - | - |
| 1778280331 | 32.78° C | 14% | 1018.8 hPa | 0 mm | - | - | - |
| 1778279121 | 31.67° C | 15% | 1019 hPa | 0 mm | - | - | - |
| 1778278219 | 33.33° C | 14% | 1019.3 hPa | 0 mm | - | - | - |
| 1778277917 | 32.22° C | 15% | 1019.3 hPa | 0 mm | - | - | - |
* Rain latest hour (hover to see other rain measurements)
** Current wind speed in m/s (hover to see current wind gust speed)